Time;durP1;ratioP1;P1;durP2;ratioP2;P2;SDS_P1;SDS_P2;PMS_P1;PMS_P2;Temp;Humidity;BMP_temperature;BMP_pressure;BME280_temperature;BME280_humidity;BME280_pressure;Samples;Min_cycle;Max_cycle;Signal;HPM_P1;HPM_P2
2023/10/25 00:00:31;;;;;;;7.50;2.00;;;;;;;13.97;83.27;99340.13;5057130;28;20056;-49
2023/10/25 00:02:58;;;;;;;7.35;1.75;;;;;;;13.86;84.12;99341.94;5075302;28;20075;-56
2023/10/25 00:05:31;;;;;;;5.97;2.05;;;;;;;13.71;85.87;99337.28;5088911;28;20059;-54
2023/10/25 00:07:59;;;;;;;8.20;2.15;;;;;;;13.77;85.84;99333.88;5095761;28;20062;-53
2023/10/25 00:10:26;;;;;;;5.28;1.80;;;;;;;13.60;87.99;99322.47;5092584;28;20048;-54
2023/10/25 00:12:53;;;;;;;6.85;1.95;;;;;;;13.63;88.06;99316.22;5074765;28;20431;-53
2023/10/25 00:15:21;;;;;;;5.30;1.70;;;;;;;13.50;88.93;99308.06;5074497;28;20037;-53
2023/10/25 00:17:49;;;;;;;8.45;1.98;;;;;;;13.52;90.21;99319.59;5074740;28;20067;-49
2023/10/25 00:20:16;;;;;;;5.25;1.60;;;;;;;13.64;89.79;99307.53;5056715;28;20053;-51
2023/10/25 00:22:43;;;;;;;7.82;2.03;;;;;;;13.40;91.25;99308.69;5074857;28;20044;-52
2023/10/25 00:25:10;;;;;;;4.30;1.77;;;;;;;13.62;92.49;99306.28;5076951;28;20052;-53
2023/10/25 00:27:38;;;;;;;7.00;1.95;;;;;;;13.45;93.70;99310.34;5075212;28;20407;-53
2023/10/25 00:30:06;;;;;;;6.05;1.75;;;;;;;13.15;93.83;99323.97;5074799;28;20048;-50
2023/10/25 00:32:33;;;;;;;6.68;1.52;;;;;;;13.15;95.68;99318.44;5074652;28;20527;-51
2023/10/25 00:35:00;;;;;;;4.47;1.65;;;;;;;13.09;97.00;99322.66;5074637;28;20439;-54
2023/10/25 00:37:28;;;;;;;6.82;2.00;;;;;;;13.17;97.61;99316.13;5075024;28;20049;-52
2023/10/25 00:39:56;;;;;;;4.30;1.55;;;;;;;13.23;96.83;99297.28;5056665;28;20045;-55
2023/10/25 00:42:24;;;;;;;7.70;1.90;;;;;;;13.30;96.86;99289.91;5074743;28;20060;-54
2023/10/25 00:44:52;;;;;;;7.72;1.92;;;;;;;13.37;97.27;99286.50;5074604;28;20183;-55
2023/10/25 00:47:19;;;;;;;7.60;1.80;;;;;;;13.12;99.03;99279.66;5073054;28;20056;-55
2023/10/25 00:49:47;;;;;;;8.43;2.42;;;;;;;13.00;100.00;99291.66;5057136;28;20052;-52
2023/10/25 00:52:14;;;;;;;7.60;1.63;;;;;;;12.77;100.00;99287.19;5074249;28;20055;-52
2023/10/25 00:54:42;;;;;;;4.88;1.60;;;;;;;12.91;100.00;99280.00;5073430;28;20052;-54
2023/10/25 00:57:10;;;;;;;8.32;2.13;;;;;;;13.14;100.00;99266.28;5040043;28;20060;-52
2023/10/25 00:59:38;;;;;;;5.63;1.83;;;;;;;13.10;100.00;99260.69;5056292;28;20037;-51
2023/10/25 01:02:07;;;;;;;6.38;1.65;;;;;;;12.92;100.00;99256.72;5056569;28;20044;-55
2023/10/25 01:04:35;;;;;;;3.90;1.65;;;;;;;12.96;100.00;99248.50;5056383;28;20671;-55
2023/10/25 01:07:03;;;;;;;5.65;1.67;;;;;;;12.85;100.00;99242.75;5056510;28;20052;-52
2023/10/25 01:09:31;;;;;;;7.93;1.70;;;;;;;12.99;100.00;99239.50;5072859;28;20059;-64
2023/10/25 01:11:58;;;;;;;4.53;1.75;;;;;;;12.81;100.00;99222.56;5055875;28;20052;-62
2023/10/25 01:14:27;;;;;;;6.72;2.08;;;;;;;12.84;100.00;99221.84;5072581;28;20056;-64
2023/10/25 01:16:54;;;;;;;9.85;1.77;;;;;;;12.82;100.00;99210.34;5072006;28;20147;-64
2023/10/25 01:19:22;;;;;;;3.92;1.85;;;;;;;12.80;100.00;99203.56;5073443;28;20423;-50
2023/10/25 01:21:49;;;;;;;4.95;2.03;;;;;;;12.82;100.00;99182.72;5074163;28;20063;-49
2023/10/25 01:24:17;;;;;;;3.55;1.50;;;;;;;12.57;100.00;99173.13;5054323;28;20040;-53
2023/10/25 01:26:44;;;;;;;8.05;2.05;;;;;;;12.68;100.00;99162.28;5032784;28;20053;-64
2023/10/25 01:29:11;;;;;;;4.05;1.30;;;;;;;12.61;100.00;99153.84;5066297;28;20059;-63
2023/10/25 01:31:38;;;;;;;5.55;1.50;;;;;;;12.74;100.00;99142.31;5073344;28;20044;-53
2023/10/25 01:34:06;;;;;;;6.88;1.75;;;;;;;12.58;100.00;99133.31;5073858;28;20041;-55
2023/10/25 01:36:34;;;;;;;8.57;1.80;;;;;;;12.63;100.00;99130.25;5073813;28;20051;-53
2023/10/25 01:39:01;;;;;;;5.53;1.45;;;;;;;12.68;100.00;99127.19;5073654;28;20055;-51
2023/10/25 01:41:28;;;;;;;4.93;1.40;;;;;;;12.72;100.00;99125.28;5055552;28;20071;-51
2023/10/25 01:43:55;;;;;;;5.55;1.88;;;;;;;12.56;100.00;99123.78;5073584;28;20044;-55
2023/10/25 01:46:23;;;;;;;3.70;1.50;;;;;;;12.19;100.00;99115.94;5070770;28;20055;-54
2023/10/25 01:48:50;;;;;;;4.40;1.70;;;;;;;12.38;100.00;99101.34;5074002;28;20056;-64
2023/10/25 01:51:17;;;;;;;7.10;1.92;;;;;;;12.48;100.00;99084.97;5065501;28;20041;-63
2023/10/25 01:53:46;;;;;;;6.25;1.52;;;;;;;12.50;100.00;99087.38;5052729;28;20041;-63
2023/10/25 01:56:13;;;;;;;5.15;1.60;;;;;;;12.53;100.00;99080.31;5038277;28;20048;-52
2023/10/25 01:58:40;;;;;;;6.00;1.90;;;;;;;12.37;100.00;99072.13;5055274;28;20060;-52
2023/10/25 02:01:08;;;;;;;4.55;1.25;;;;;;;12.66;100.00;99065.97;5055119;28;20424;-52
2023/10/25 02:03:35;;;;;;;5.07;1.45;;;;;;;12.66;100.00;99054.16;5055358;28;20636;-55
2023/10/25 02:06:11;;;;;;;4.65;1.58;;;;;;;12.65;100.00;99055.28;5055448;28;20040;-55
2023/10/25 02:08:38;;;;;;;6.15;1.30;;;;;;;12.60;100.00;99053.66;5054356;28;20526;-53
2023/10/25 02:11:06;;;;;;;4.38;1.45;;;;;;;12.42;100.00;99035.94;5072521;28;20525;-61
2023/10/25 02:13:34;;;;;;;5.80;1.70;;;;;;;12.41;100.00;99040.66;5072933;28;20044;-63
2023/10/25 02:16:13;;;;;;;3.83;1.55;;;;;;;12.46;100.00;99040.34;5054375;28;20059;-63
2023/10/25 02:18:41;;;;;;;4.22;1.70;;;;;;;12.36;100.00;99029.91;5072702;28;20057;-63
2023/10/25 02:21:09;;;;;;;4.25;1.55;;;;;;;12.50;100.00;99028.59;5072899;28;20053;-63
2023/10/25 02:23:38;;;;;;;4.85;1.70;;;;;;;12.38;100.00;99013.78;5055112;28;20045;-53
2023/10/25 02:26:06;;;;;;;5.60;1.67;;;;;;;12.40;100.00;99014.22;5055067;28;20055;-54
2023/10/25 02:28:33;;;;;;;7.53;1.55;;;;;;;12.49;100.00;98997.41;5051964;28;20049;-53
2023/10/25 02:31:01;;;;;;;7.03;1.50;;;;;;;12.48;100.00;98993.06;5072450;28;20049;-63
2023/10/25 02:33:28;;;;;;;4.95;1.40;;;;;;;12.50;100.00;98982.41;5055054;28;20048;-63
2023/10/25 02:35:55;;;;;;;6.82;1.77;;;;;;;12.64;100.00;98971.63;5073068;28;20045;-50
2023/10/25 02:38:23;;;;;;;3.63;1.30;;;;;;;12.75;100.00;98958.78;5045401;28;20072;-54
2023/10/25 02:40:50;;;;;;;2.00;1.13;;;;;;;12.71;100.00;98957.91;5052798;28;20515;-50
2023/10/25 02:43:17;;;;;;;3.55;1.50;;;;;;;12.78;100.00;98955.28;5034536;28;20076;-55
2023/10/25 02:45:45;;;;;;;7.93;1.35;;;;;;;12.88;100.00;98938.09;5034581;28;20056;-52
2023/10/25 02:48:15;;;;;;;4.05;1.30;;;;;;;12.75;100.00;98944.97;5052775;28;20064;-52
2023/10/25 02:50:43;;;;;;;4.75;1.48;;;;;;;12.92;100.00;98925.09;5073235;28;20202;-52
2023/10/25 02:53:10;;;;;;;6.88;1.60;;;;;;;12.76;100.00;98921.69;5071587;28;20053;-63
2023/10/25 02:55:37;;;;;;;4.43;1.30;;;;;;;12.81;100.00;98928.88;5070814;28;20055;-53
2023/10/25 02:58:05;;;;;;;3.92;1.52;;;;;;;12.96;100.00;98919.63;5072002;28;20048;-53
2023/10/25 03:00:32;;;;;;;5.53;1.55;;;;;;;12.89;100.00;98928.63;5070373;28;20068;-53
2023/10/25 03:02:59;;;;;;;4.38;1.40;;;;;;;12.74;100.00;98920.47;5070953;28;20052;-52
2023/10/25 03:05:27;;;;;;;2.97;1.45;;;;;;;12.75;100.00;98920.09;5071100;28;20052;-63
2023/10/25 03:07:55;;;;;;;4.50;1.67;;;;;;;12.78;100.00;98907.53;5053786;28;20079;-52
2023/10/25 03:10:22;;;;;;;3.38;1.52;;;;;;;13.07;100.00;98901.28;5053335;28;20430;-54
2023/10/25 03:12:49;;;;;;;4.80;1.30;;;;;;;13.00;100.00;98906.66;5071479;28;20048;-50
2023/10/25 03:15:17;;;;;;;8.75;1.60;;;;;;;12.70;100.00;98894.75;5054043;28;20383;-55
2023/10/25 03:17:44;;;;;;;4.55;1.67;;;;;;;12.75;100.00;98886.97;5071951;28;20052;-64
2023/10/25 03:20:12;;;;;;;4.20;1.38;;;;;;;12.72;100.00;98878.63;5071990;28;20053;-63
2023/10/25 03:22:39;;;;;;;4.90;1.42;;;;;;;12.77;100.00;98879.09;5070242;28;20056;-63
2023/10/25 03:25:07;;;;;;;5.65;1.75;;;;;;;12.83;100.00;98888.66;5050440;28;20064;-63
2023/10/25 03:27:34;;;;;;;5.13;1.73;;;;;;;12.98;100.00;98881.38;5052548;28;20072;-63
2023/10/25 03:30:04;;;;;;;5.82;1.40;;;;;;;13.02;100.00;98871.97;5052756;28;21554;-63
2023/10/25 03:32:31;;;;;;;5.97;1.73;;;;;;;12.88;100.00;98866.25;5070185;28;20070;-64
2023/10/25 03:35:00;;;;;;;6.63;1.90;;;;;;;12.90;100.00;98868.63;5054363;28;20056;-63
2023/10/25 03:37:27;;;;;;;7.28;2.08;;;;;;;12.92;100.00;98844.19;5036074;28;20061;-53
2023/10/25 03:39:54;;;;;;;6.85;1.90;;;;;;;12.99;100.00;98847.81;5035909;28;20064;-62
2023/10/25 03:42:22;;;;;;;7.50;2.03;;;;;;;13.01;100.00;98845.50;5057314;28;20044;-54
2023/10/25 03:44:49;;;;;;;5.30;1.60;;;;;;;13.02;100.00;98841.56;5057800;28;20044;-52
2023/10/25 03:47:16;;;;;;;5.25;1.42;;;;;;;13.25;100.00;98833.19;5075548;28;20060;-55
2023/10/25 03:49:44;;;;;;;4.65;1.75;;;;;;;13.40;100.00;98826.66;5057160;28;20051;-51
2023/10/25 03:52:11;;;;;;;7.45;1.83;;;;;;;13.38;100.00;98824.28;5056690;28;20056;-54
2023/10/25 03:54:38;;;;;;;7.60;2.00;;;;;;;13.32;100.00;98820.25;5074941;28;20262;-51
2023/10/25 03:57:06;;;;;;;8.30;2.00;;;;;;;13.30;100.00;98805.22;5076103;28;20048;-63
2023/10/25 03:59:33;;;;;;;5.70;1.83;;;;;;;13.48;100.00;98809.75;5075076;28;20075;-64
2023/10/25 04:02:01;;;;;;;8.77;1.73;;;;;;;13.48;100.00;98804.22;5075242;28;20056;-63
2023/10/25 04:04:28;;;;;;;10.68;1.98;;;;;;;13.46;100.00;98792.75;5082128;28;20051;-54
2023/10/25 04:06:56;;;;;;;5.25;1.75;;;;;;;13.32;100.00;98795.34;5095135;28;20055;-55
2023/10/25 04:09:23;;;;;;;5.78;1.80;;;;;;;13.23;100.00;98780.25;5095355;28;20060;-55
2023/10/25 04:11:50;;;;;;;6.43;1.85;;;;;;;13.49;100.00;98789.22;5092303;28;20049;-52
2023/10/25 04:14:18;;;;;;;6.05;1.60;;;;;;;13.50;100.00;98785.28;5074979;28;20048;-53
2023/10/25 04:16:45;;;;;;;8.52;1.92;;;;;;;13.55;100.00;98771.09;5056697;28;20056;-56
2023/10/25 04:19:12;;;;;;;5.47;1.45;;;;;;;13.57;100.00;98771.53;5075360;28;20402;-55
2023/10/25 04:21:40;;;;;;;6.95;1.50;;;;;;;13.63;100.00;98760.91;5057192;28;20049;-53
2023/10/25 04:24:08;;;;;;;6.32;1.90;;;;;;;13.54;100.00;98761.22;5074981;28;20550;-53
2023/10/25 04:26:35;;;;;;;4.03;1.42;;;;;;;13.45;100.00;98752.44;5093508;28;20399;-52
2023/10/25 04:29:02;;;;;;;7.82;2.42;;;;;;;13.45;100.00;98757.97;5083537;28;20491;-51
2023/10/25 04:31:29;;;;;;;3.45;1.30;;;;;;;13.50;100.00;98749.31;5074685;28;20511;-63
2023/10/25 04:33:59;;;;;;;4.38;1.35;;;;;;;13.46;100.00;98745.72;5074589;28;20048;-63
2023/10/25 04:36:26;;;;;;;7.60;1.65;;;;;;;13.39;100.00;98742.88;5056528;28;20052;-55
2023/10/25 04:38:53;;;;;;;6.82;1.50;;;;;;;13.38;100.00;98734.97;5073212;28;20040;-54
2023/10/25 04:41:21;;;;;;;3.33;1.30;;;;;;;13.33;100.00;98733.34;5073917;28;20045;-55
2023/10/25 04:43:48;;;;;;;5.93;1.40;;;;;;;13.29;100.00;98732.50;5074043;28;20048;-58
2023/10/25 04:46:16;;;;;;;5.20;1.40;;;;;;;13.38;100.00;98733.00;5056648;28;20048;-55
2023/10/25 04:48:43;;;;;;;5.53;1.60;;;;;;;13.41;100.00;98734.22;5068994;28;20057;-52
2023/10/25 04:51:13;;;;;;;4.23;1.60;;;;;;;13.70;100.00;98729.75;5089343;28;20043;-56
2023/10/25 04:53:40;;;;;;;3.95;1.30;;;;;;;13.63;100.00;98730.47;5074647;28;20048;-54
2023/10/25 04:56:08;;;;;;;4.75;2.05;;;;;;;13.49;100.00;98733.88;5076763;28;20049;-56
2023/10/25 04:58:35;;;;;;;5.50;1.52;;;;;;;13.57;100.00;98723.69;5059226;28;20155;-56
2023/10/25 05:01:13;;;;;;;4.45;1.50;;;;;;;13.49;100.00;98730.34;5056133;28;20052;-54
2023/10/25 05:03:44;;;;;;;5.72;2.05;;;;;;;13.57;100.00;98727.28;5073436;28;20048;-55
2023/10/25 05:06:12;;;;;;;5.28;1.40;;;;;;;13.64;100.00;98722.97;5054386;28;20771;-54
2023/10/25 05:08:40;;;;;;;5.53;1.85;;;;;;;13.55;100.00;98721.31;5054813;28;20408;-70
2023/10/25 05:11:08;;;;;;;6.28;1.90;;;;;;;13.57;100.00;98715.41;5054034;28;20779;-63
2023/10/25 05:13:36;;;;;;;4.15;1.80;;;;;;;13.64;100.00;98718.22;5059559;28;20159;-64
2023/10/25 05:16:04;;;;;;;4.95;1.75;;;;;;;13.77;100.00;98716.78;5073584;28;20048;-64
2023/10/25 05:18:32;;;;;;;4.70;1.67;;;;;;;13.86;100.00;98724.75;5074281;28;20061;-63
2023/10/25 05:21:01;;;;;;;8.23;2.70;;;;;;;13.87;100.00;98718.81;5073749;28;20396;-62
2023/10/25 05:23:33;;;;;;;7.07;2.95;;;;;;;14.01;100.00;98723.66;5073929;28;20059;-63
2023/10/25 05:26:02;;;;;;;7.80;2.28;;;;;;;13.95;100.00;98717.69;5086508;28;20174;-64
2023/10/25 05:28:31;;;;;;;9.23;1.80;;;;;;;14.05;100.00;98713.44;5087482;28;20491;-63
2023/10/25 05:31:02;;;;;;;7.10;2.08;;;;;;;14.05;100.00;98716.97;5073639;28;20397;-63
2023/10/25 05:33:32;;;;;;;8.82;1.90;;;;;;;14.11;100.00;98714.63;5073765;28;20084;-63
2023/10/25 05:36:03;;;;;;;6.60;2.08;;;;;;;14.27;100.00;98713.22;5038994;28;20594;-63
2023/10/25 05:38:30;;;;;;;6.22;1.90;;;;;;;14.24;100.00;98707.63;5078644;28;20051;-64
2023/10/25 05:40:58;;;;;;;6.28;2.00;;;;;;;14.47;100.00;98702.66;5046345;28;20060;-64
2023/10/25 05:43:29;;;;;;;12.43;2.30;;;;;;;14.40;100.00;98699.84;5059349;28;20052;-64
2023/10/25 05:45:56;;;;;;;8.10;2.15;;;;;;;14.48;100.00;98695.91;5073213;28;20040;-62
2023/10/25 05:48:24;;;;;;;10.38;2.40;;;;;;;14.48;100.00;98693.16;5072932;28;20048;-64
2023/10/25 05:50:52;;;;;;;9.43;2.50;;;;;;;14.46;100.00;98704.63;5055371;28;20396;-64
2023/10/25 05:53:19;;;;;;;8.95;2.22;;;;;;;14.37;100.00;98695.84;5054555;28;20482;-63
2023/10/25 05:55:47;;;;;;;6.13;2.30;;;;;;;14.47;100.00;98699.88;5073100;28;20051;-63
2023/10/25 05:58:14;;;;;;;7.88;2.05;;;;;;;14.46;100.00;98704.63;5073037;28;20067;-63
2023/10/25 06:00:48;;;;;;;8.73;2.38;;;;;;;14.51;100.00;98704.25;5073462;28;20053;-64
2023/10/25 06:03:21;;;;;;;10.15;2.30;;;;;;;14.44;100.00;98708.94;5072206;28;20063;-64
2023/10/25 06:06:00;;;;;;;7.75;2.00;;;;;;;14.54;100.00;98705.44;5056879;28;20048;-64
2023/10/25 06:08:28;;;;;;;6.53;2.17;;;;;;;14.58;100.00;98712.59;5073142;28;20057;-63
2023/10/25 06:10:56;;;;;;;7.22;2.00;;;;;;;14.63;100.00;98722.50;5071666;28;20527;-63
2023/10/25 06:13:23;;;;;;;10.88;2.65;;;;;;;14.66;100.00;98713.44;5073124;28;20048;-63
2023/10/25 06:15:51;;;;;;;9.65;2.00;;;;;;;15.07;100.00;98714.75;5072845;28;20068;-63
2023/10/25 06:18:18;;;;;;;9.85;2.08;;;;;;;15.08;100.00;98724.66;5072759;28;20052;-63
2023/10/25 06:20:45;;;;;;;8.98;2.05;;;;;;;15.07;100.00;98723.09;5072604;28;20040;-62
2023/10/25 06:23:12;;;;;;;8.10;1.80;;;;;;;14.92;100.00;98713.13;5055231;28;20053;-65
2023/10/25 06:25:40;;;;;;;13.00;3.08;;;;;;;14.76;100.00;98726.53;5054336;28;20055;-65
2023/10/25 06:28:07;;;;;;;7.32;2.28;;;;;;;14.91;100.00;98719.84;5072800;28;20044;-64
2023/10/25 06:30:34;;;;;;;10.50;2.22;;;;;;;14.74;100.00;98719.78;5072532;28;20057;-63
2023/10/25 06:33:04;;;;;;;8.20;2.03;;;;;;;14.70;100.00;98717.00;5054635;28;20064;-64
2023/10/25 06:35:31;;;;;;;6.38;1.88;;;;;;;14.68;100.00;98729.66;5072635;28;20056;-64
2023/10/25 06:37:59;;;;;;;8.77;2.00;;;;;;;14.99;100.00;98729.81;5043688;28;20056;-65
2023/10/25 06:40:26;;;;;;;8.07;2.10;;;;;;;15.04;100.00;98737.75;5072645;28;20052;-63
2023/10/25 06:42:54;;;;;;;8.50;2.40;;;;;;;15.25;100.00;98735.03;5071569;28;20048;-65
2023/10/25 06:45:21;;;;;;;7.30;1.50;;;;;;;15.55;100.00;98734.72;5070119;28;20051;-64
2023/10/25 06:47:49;;;;;;;12.98;2.75;;;;;;;15.35;100.00;98739.00;5057011;28;20063;-64
2023/10/25 06:50:16;;;;;;;6.97;1.45;;;;;;;15.07;100.00;98748.03;5081494;28;20044;-63
2023/10/25 06:52:44;;;;;;;7.95;1.90;;;;;;;15.15;100.00;98749.63;5075374;28;20049;-64
2023/10/25 06:55:12;;;;;;;8.93;2.30;;;;;;;15.09;100.00;98762.31;5083240;28;20036;-64
2023/10/25 06:57:39;;;;;;;6.05;1.77;;;;;;;15.25;100.00;98756.41;5086147;28;20048;-62
2023/10/25 07:00:09;;;;;;;5.82;0.98;;;;;;;15.53;100.00;98753.75;5061246;28;20049;-62
2023/10/25 07:02:52;;;;;;;7.05;1.30;;;;;;;15.47;100.00;98758.88;5080845;28;20044;-62
2023/10/25 07:05:23;;;;;;;3.05;1.10;;;;;;;15.37;100.00;98756.06;5075809;28;20072;-63
2023/10/25 07:07:51;;;;;;;3.05;0.90;;;;;;;15.39;100.00;98762.81;5078629;28;20040;-63
2023/10/25 07:10:19;;;;;;;3.35;1.10;;;;;;;15.34;100.00;98768.72;5055882;28;20064;-63
2023/10/25 07:12:47;;;;;;;4.15;1.00;;;;;;;15.24;100.00;98760.38;5075664;28;20511;-64
2023/10/25 07:15:15;;;;;;;3.55;1.00;;;;;;;15.21;100.00;98769.47;5073507;28;20056;-64
2023/10/25 07:17:44;;;;;;;4.25;1.10;;;;;;;15.21;100.00;98769.47;5073688;28;20061;-63
2023/10/25 07:20:12;;;;;;;2.22;0.77;;;;;;;15.12;100.00;98775.38;5073262;28;20055;-64
2023/10/25 07:22:39;;;;;;;4.18;1.10;;;;;;;15.18;100.00;98776.63;5078602;28;20055;-64
2023/10/25 07:25:07;;;;;;;5.47;1.15;;;;;;;15.03;100.00;98783.28;5078119;28;20063;-64
2023/10/25 07:27:37;;;;;;;5.50;1.00;;;;;;;15.07;100.00;98781.31;5051224;28;20423;-54
2023/10/25 07:30:05;;;;;;;2.60;0.73;;;;;;;15.00;100.00;98772.97;5072665;28;20051;-64
2023/10/25 07:32:33;;;;;;;2.58;0.82;;;;;;;14.83;100.00;98779.22;5074957;28;20064;-64
2023/10/25 07:35:00;;;;;;;1.90;0.60;;;;;;;14.93;100.00;98786.00;5075296;28;20057;-64
2023/10/25 07:37:27;;;;;;;6.53;1.02;;;;;;;15.03;100.00;98782.50;5074985;28;20049;-57
2023/10/25 07:39:55;;;;;;;3.58;0.88;;;;;;;15.26;100.00;98788.50;5057152;28;20399;-56
2023/10/25 07:42:22;;;;;;;5.72;0.95;;;;;;;15.37;100.00;98792.13;5075484;28;20041;-58
2023/10/25 07:44:49;;;;;;;3.30;1.10;;;;;;;15.19;100.00;98792.06;5057260;28;20052;-57
2023/10/25 07:47:17;;;;;;;2.97;0.93;;;;;;;15.17;100.00;98799.16;5056182;28;20049;-57
2023/10/25 07:49:47;;;;;;;3.15;0.90;;;;;;;15.28;100.00;98791.69;5079289;28;20055;-57
2023/10/25 07:52:16;;;;;;;3.17;1.08;;;;;;;15.28;100.00;98783.38;5075182;28;20045;-56
2023/10/25 07:54:43;;;;;;;1.60;0.90;;;;;;;15.63;100.00;98781.53;5074341;28;20048;-63
2023/10/25 07:57:11;;;;;;;2.97;0.90;;;;;;;15.26;100.00;98789.31;5067635;28;20040;-63
2023/10/25 07:59:43;;;;;;;3.88;1.08;;;;;;;15.19;100.00;98794.03;5065818;28;20051;-63
2023/10/25 08:02:10;;;;;;;4.20;1.15;;;;;;;15.24;100.00;98793.66;5074771;28;20047;-64
2023/10/25 08:04:37;;;;;;;4.32;1.10;;;;;;;15.13;100.00;98792.81;5083049;28;20044;-64
2023/10/25 08:07:05;;;;;;;7.78;1.40;;;;;;;15.18;100.00;98801.56;5075673;28;20055;-63
2023/10/25 08:09:32;;;;;;;5.93;1.02;;;;;;;14.91;100.00;98807.75;5064668;28;20828;-63
2023/10/25 08:11:59;;;;;;;6.30;1.15;;;;;;;15.01;100.00;98805.03;5080617;28;20056;-64
2023/10/25 08:14:27;;;;;;;1.52;0.60;;;;;;;15.27;100.00;98810.31;5085571;28;20409;-64
2023/10/25 08:16:54;;;;;;;4.90;1.00;;;;;;;15.38;100.00;98810.34;5081742;28;20725;-64
2023/10/25 08:19:22;;;;;;;7.82;1.90;;;;;;;15.29;100.00;98816.25;5063196;28;20059;-64
2023/10/25 08:21:50;;;;;;;6.70;1.30;;;;;;;15.65;100.00;98820.78;5079596;28;20052;-63
2023/10/25 08:24:17;;;;;;;11.00;1.85;;;;;;;15.44;100.00;98811.59;5067925;28;20059;-63
2023/10/25 08:26:45;;;;;;;3.95;1.50;;;;;;;15.21;100.00;98817.44;5075554;28;20044;-63
2023/10/25 08:29:12;;;;;;;5.05;1.17;;;;;;;15.30;100.00;98817.06;5078566;28;20055;-65
2023/10/25 08:31:40;;;;;;;4.75;1.10;;;;;;;15.24;100.00;98816.63;5078587;28;20403;-63
2023/10/25 08:34:08;;;;;;;4.65;1.20;;;;;;;15.35;100.00;98809.16;5082324;28;20055;-63
2023/10/25 08:36:36;;;;;;;13.65;2.25;;;;;;;15.38;100.00;98813.91;5066263;28;20530;-63
2023/10/25 08:39:04;;;;;;;10.93;1.60;;;;;;;15.33;100.00;98814.31;5084180;28;20047;-63
2023/10/25 08:41:33;;;;;;;4.68;1.23;;;;;;;15.37;100.00;98812.34;5062158;28;20069;-64
2023/10/25 08:44:00;;;;;;;4.15;1.25;;;;;;;15.33;100.00;98816.28;5076584;28;20056;-65
2023/10/25 08:46:28;;;;;;;3.50;1.42;;;;;;;15.33;100.00;98819.84;5055290;28;20045;-64
2023/10/25 08:48:56;;;;;;;2.05;1.10;;;;;;;15.32;100.00;98814.69;5075191;28;20063;-64
2023/10/25 08:51:24;;;;;;;3.70;1.10;;;;;;;15.53;100.00;98823.91;5079199;28;20048;-63
2023/10/25 08:53:54;;;;;;;2.70;1.02;;;;;;;15.55;100.00;98821.53;5078318;28;20461;-63
2023/10/25 08:56:21;;;;;;;1.92;0.90;;;;;;;15.48;100.00;98815.19;5057486;28;20055;-63
2023/10/25 08:58:49;;;;;;;5.93;1.25;;;;;;;15.31;100.00;98819.44;5054442;28;20055;-64
2023/10/25 09:01:17;;;;;;;2.13;0.70;;;;;;;15.18;100.00;98823.75;5060924;28;20048;-63
2023/10/25 09:03:44;;;;;;;3.60;0.80;;;;;;;15.18;100.00;98815.44;5073128;28;20056;-63
2023/10/25 09:06:22;;;;;;;1.75;0.70;;;;;;;15.23;100.00;98811.47;5076870;28;20047;-65
2023/10/25 09:08:59;;;;;;;4.25;1.02;;;;;;;15.52;100.00;98822.31;5070881;28;20040;-63
2023/10/25 09:11:38;;;;;;;3.00;1.20;;;;;;;15.68;100.00;98819.19;5076198;28;20056;-64
2023/10/25 09:14:06;;;;;;;3.80;0.93;;;;;;;15.64;100.00;98812.81;5079001;28;20049;-63
2023/10/25 09:16:33;;;;;;;6.93;1.35;;;;;;;15.79;100.00;98812.47;5072630;28;20044;-64
2023/10/25 09:19:05;;;;;;;4.10;1.40;;;;;;;15.85;100.00;98810.09;5078930;28;20048;-64
2023/10/25 09:21:32;;;;;;;3.58;1.60;;;;;;;15.61;100.00;98816.41;5076331;28;20057;-63
2023/10/25 09:24:02;;;;;;;5.47;1.50;;;;;;;15.56;100.00;98812.03;5061495;28;20142;-63
2023/10/25 09:26:34;;;;;;;6.50;1.88;;;;;;;15.85;100.00;98812.88;5078662;28;20048;-64
2023/10/25 09:29:02;;;;;;;3.17;1.38;;;;;;;15.66;100.00;98814.03;5084308;28;20063;-65
2023/10/25 09:31:30;;;;;;;8.38;1.20;;;;;;;15.64;100.00;98815.59;5075468;28;20151;-64
2023/10/25 09:33:58;;;;;;;2.35;1.08;;;;;;;15.52;100.00;98813.19;5073581;28;20052;-63
2023/10/25 09:36:28;;;;;;;1.30;0.80;;;;;;;15.52;100.00;98813.19;5072922;28;20045;-64
2023/10/25 09:38:56;;;;;;;2.13;0.93;;;;;;;15.50;100.00;98808.03;5079887;28;20052;-63
2023/10/25 09:41:26;;;;;;;2.90;1.20;;;;;;;15.57;100.00;98801.72;5078318;28;20051;-63
2023/10/25 09:43:58;;;;;;;2.20;1.30;;;;;;;15.68;100.00;98806.13;5073917;28;20056;-64
2023/10/25 09:46:30;;;;;;;2.67;1.00;;;;;;;15.62;100.00;98804.91;5070959;28;20052;-63
2023/10/25 09:49:04;;;;;;;4.50;1.88;;;;;;;15.82;100.00;98807.31;5070902;28;20526;-63
2023/10/25 09:51:44;;;;;;;3.60;1.30;;;;;;;15.72;100.00;98809.69;5072526;28;20057;-62
2023/10/25 09:54:13;;;;;;;4.65;1.52;;;;;;;15.98;100.00;98814.09;5072326;28;20059;-64
2023/10/25 09:56:40;;;;;;;11.98;1.50;;;;;;;15.88;100.00;98801.00;5079265;28;20055;-63
2023/10/25 09:59:11;;;;;;;2.55;1.23;;;;;;;16.01;99.62;98810.50;5075488;28;20055;-64
2023/10/25 10:01:39;;;;;;;2.85;1.20;;;;;;;15.82;98.34;98807.31;5078078;28;20056;-64
2023/10/25 10:04:22;;;;;;;3.13;0.98;;;;;;;15.54;100.00;98806.06;5060018;28;20383;-63
2023/10/25 10:07:19;;;;;;;2.35;0.90;;;;;;;15.85;100.00;98792.66;5080215;28;20048;-64
2023/10/25 10:10:03;;;;;;;2.72;1.10;;;;;;;15.78;99.59;98793.44;5075419;28;20526;-63
2023/10/25 10:12:30;;;;;;;5.00;1.20;;;;;;;15.72;99.38;98803.34;5077692;28;20691;-64
2023/10/25 10:14:58;;;;;;;3.55;1.00;;;;;;;15.56;99.19;98805.69;5073932;28;20064;-64
2023/10/25 10:17:28;;;;;;;3.45;1.40;;;;;;;15.32;100.00;98800.81;5071290;28;20056;-63
2023/10/25 10:19:57;;;;;;;;;;;;;;;15.26;100.00;98802.38;5078136;28;20056;-64
2023/10/25 10:22:26;;;;;;;4.40;1.33;;;;;;;15.15;100.00;98793.25;5067639;28;19947;-65
2023/10/25 10:24:56;;;;;;;4.50;1.63;;;;;;;15.40;100.00;98799.69;5078401;28;20071;-63
2023/10/25 10:27:25;;;;;;;7.20;2.50;;;;;;;15.39;100.00;98801.66;5071368;28;20543;-63
2023/10/25 10:29:53;;;;;;;7.03;2.08;;;;;;;15.41;100.00;98807.59;5078872;28;20032;-64
2023/10/25 10:32:21;;;;;;;12.65;4.10;;;;;;;15.36;100.00;98805.19;5076875;28;20047;-64
2023/10/25 10:34:54;;;;;;;15.30;6.97;;;;;;;15.27;100.00;98801.22;5074239;28;20048;-63
2023/10/25 10:37:24;;;;;;;14.13;8.25;;;;;;;15.09;100.00;98803.91;5076487;28;20400;-65
2023/10/25 10:39:57;;;;;;;26.88;18.42;;;;;;;15.30;100.00;98798.44;5072058;28;20052;-64
2023/10/25 10:42:38;;;;;;;17.27;10.30;;;;;;;15.14;100.00;98808.28;5074543;28;20052;-66
2023/10/25 10:45:08;;;;;;;62.45;26.17;;;;;;;14.91;100.00;98803.03;5090444;28;20079;-64
2023/10/25 10:47:38;;;;;;;19.10;10.50;;;;;;;14.93;100.00;98803.44;5073761;28;20690;-65
2023/10/25 10:50:11;;;;;;;14.35;6.47;;;;;;;14.37;100.00;98809.41;5081966;28;20606;-64
2023/10/25 10:52:40;;;;;;;20.42;11.45;;;;;;;14.30;100.00;98814.09;5077519;28;20055;-64
2023/10/25 10:55:08;;;;;;;5.55;2.70;;;;;;;14.05;100.00;98818.63;5082400;28;20045;-64
2023/10/25 10:57:36;;;;;;;8.60;4.70;;;;;;;13.87;100.00;98818.47;5081739;28;20052;-64
2023/10/25 11:00:08;;;;;;;9.00;4.50;;;;;;;13.75;100.00;98823.47;5073559;28;20045;-63
2023/10/25 11:02:37;;;;;;;10.65;4.82;;;;;;;13.59;100.00;98834.78;5080921;28;20052;-63
2023/10/25 11:05:05;;;;;;;12.02;6.63;;;;;;;13.53;100.00;98845.38;5081046;28;20047;-64
2023/10/25 11:07:32;;;;;;;6.68;3.30;;;;;;;13.70;100.00;98834.88;5084116;28;20599;-63
2023/10/25 11:10:00;;;;;;;8.15;4.35;;;;;;;13.50;100.00;98826.78;5077686;28;20571;-64
2023/10/25 11:12:27;;;;;;;11.35;6.40;;;;;;;13.69;100.00;98823.00;5082752;28;20059;-64
2023/10/25 11:15:01;;;;;;;10.07;5.20;;;;;;;14.06;100.00;98822.97;5076565;28;20068;-65
2023/10/25 11:17:28;;;;;;;6.90;4.07;;;;;;;14.14;100.00;98814.34;5083864;28;20064;-64
2023/10/25 11:19:57;;;;;;;7.88;4.18;;;;;;;14.34;100.00;98803.84;5084035;28;20048;-64
2023/10/25 11:22:24;;;;;;;7.05;2.67;;;;;;;14.23;100.00;98814.81;5081726;28;20059;-62
2023/10/25 11:24:53;;;;;;;5.78;2.58;;;;;;;14.26;100.00;98816.06;5077790;28;20044;-65
2023/10/25 11:27:20;;;;;;;5.45;2.72;;;;;;;14.08;100.00;98815.88;5086730;28;20051;-65
2023/10/25 11:29:50;;;;;;;5.90;2.90;;;;;;;13.89;100.00;98818.06;5074698;28;20139;-64